Time;durP1;ratioP1;P1;durP2;ratioP2;P2;SDS_P1;SDS_P2;PMS_P1;PMS_P2;Temp;Humidity;BMP_temperature;BMP_pressure;BME280_temperature;BME280_humidity;BME280_pressure;Samples;Min_cycle;Max_cycle;Signal;HPM_P1;HPM_P2
2023/08/22 00:02:04;;;;;;;7.32;1.17;;;;;;;16.16;100.00;100352.84;5032644;28;20033;-88
2023/08/22 00:04:30;;;;;;;7.65;0.98;;;;;;;16.12;100.00;100357.69;5037294;28;20041;-87
2023/08/22 00:06:56;;;;;;;6.68;1.10;;;;;;;16.08;100.00;100362.59;5026486;28;20122;-87
2023/08/22 00:09:21;;;;;;;3.53;1.10;;;;;;;16.04;100.00;100363.94;5047010;28;20052;-87
2023/08/22 00:11:47;;;;;;;5.32;0.80;;;;;;;16.06;100.00;100361.09;5031146;28;20485;-88
2023/08/22 00:14:13;;;;;;;5.80;1.10;;;;;;;16.08;100.00;100367.94;5050655;28;20032;-88
2023/08/22 00:16:38;;;;;;;6.47;0.70;;;;;;;16.08;100.00;100364.41;5031729;28;20041;-88
2023/08/22 00:19:05;;;;;;;9.82;0.80;;;;;;;16.03;100.00;100364.97;5046978;28;20622;-86
2023/08/22 00:21:30;;;;;;;4.93;0.90;;;;;;;16.02;100.00;100374.00;5031614;28;20049;-87
2023/08/22 00:23:58;;;;;;;5.80;0.60;;;;;;;16.04;100.00;100376.47;5043093;28;20045;-86
2023/08/22 00:26:24;;;;;;;4.50;1.48;;;;;;;16.02;100.00;100374.00;5033083;28;20385;-87
2023/08/22 00:28:50;;;;;;;5.10;0.82;;;;;;;16.05;100.00;100373.63;5048254;28;20041;-88
2023/08/22 00:31:15;;;;;;;4.57;0.70;;;;;;;16.09;100.00;100379.41;5022653;28;20060;-87
2023/08/22 00:33:41;;;;;;;4.50;0.77;;;;;;;16.07;100.00;100382.25;5068848;28;20051;-87
2023/08/22 00:36:07;;;;;;;7.93;0.88;;;;;;;16.08;100.00;100380.41;5038509;28;20515;-86
2023/08/22 00:38:33;;;;;;;4.28;0.57;;;;;;;16.10;100.00;100381.06;5063992;28;20089;-86
2023/08/22 00:40:59;;;;;;;5.18;0.60;;;;;;;16.15;100.00;100373.34;5049924;28;20389;-86
2023/08/22 00:43:24;;;;;;;5.20;0.90;;;;;;;16.17;100.00;100379.31;5048588;28;20029;-86
2023/08/22 00:45:50;;;;;;;3.72;0.75;;;;;;;16.18;100.00;100370.28;5015458;28;20448;-86
2023/08/22 00:48:16;;;;;;;6.10;1.08;;;;;;;16.21;100.00;100375.25;5029229;28;20045;-87
2023/08/22 00:50:42;;;;;;;4.28;0.90;;;;;;;16.23;100.00;100367.06;5038055;28;20032;-87
2023/08/22 00:53:08;;;;;;;8.50;1.05;;;;;;;16.23;100.00;100361.75;5035136;28;20025;-87
2023/08/22 00:55:33;;;;;;;8.60;1.00;;;;;;;16.25;100.00;100365.06;5048971;28;20425;-87
2023/08/22 00:58:00;;;;;;;7.97;1.38;;;;;;;16.25;100.00;100362.41;5050668;28;20131;-87
2023/08/22 01:00:26;;;;;;;5.65;1.10;;;;;;;16.23;100.00;100359.91;5032232;28;20362;-87
2023/08/22 01:02:53;;;;;;;6.85;0.90;;;;;;;16.27;100.00;100359.56;5053109;28;20028;-87
2023/08/22 01:05:19;;;;;;;4.95;1.15;;;;;;;16.26;100.00;100365.91;5053471;28;20108;-87
2023/08/22 01:08:07;;;;;;;7.93;1.58;;;;;;;16.29;100.00;100352.19;5035337;28;20543;-88
2023/08/22 01:10:38;;;;;;;6.45;1.23;;;;;;;16.27;100.00;100363.06;5048941;28;20098;-86
2023/08/22 01:13:09;;;;;;;8.25;1.15;;;;;;;16.30;100.00;100359.19;5069406;28;20026;-87
2023/08/22 01:15:36;;;;;;;4.50;1.08;;;;;;;16.28;100.00;100361.19;5053535;28;20408;-86
2023/08/22 01:18:04;;;;;;;6.80;1.92;;;;;;;16.26;100.00;100363.25;5051156;28;20064;-86
2023/08/22 01:20:31;;;;;;;8.23;1.67;;;;;;;16.25;100.00;100365.06;5048931;28;20033;-87
2023/08/22 01:22:57;;;;;;;9.00;1.27;;;;;;;16.26;100.00;100372.03;5056984;28;20041;-86
2023/08/22 01:25:25;;;;;;;6.13;1.23;;;;;;;16.30;100.00;100364.50;5029850;28;20041;-87
2023/08/22 01:28:08;;;;;;;8.48;1.27;;;;;;;16.34;100.00;100373.81;5020173;28;20125;-86
2023/08/22 01:30:49;;;;;;;5.18;1.10;;;;;;;16.31;100.00;100374.19;5035010;28;20043;-88
2023/08/22 01:33:31;;;;;;;5.50;0.90;;;;;;;16.27;100.00;100373.72;5047571;28;20032;-87
2023/08/22 01:35:57;;;;;;;6.00;1.20;;;;;;;16.25;100.00;100375.72;5047884;28;20106;-88
2023/08/22 01:38:27;;;;;;;8.05;1.25;;;;;;;16.30;100.00;100372.50;5024582;28;20473;-87
2023/08/22 01:40:54;;;;;;;5.85;1.15;;;;;;;16.26;100.00;100373.91;5019997;28;20460;-87
2023/08/22 01:43:21;;;;;;;6.78;1.15;;;;;;;16.23;100.00;100378.59;5046927;28;20033;-87
2023/08/22 01:45:47;;;;;;;8.77;1.02;;;;;;;16.25;100.00;100375.72;5040158;28;20117;-87
2023/08/22 01:48:13;;;;;;;6.28;1.25;;;;;;;16.25;100.00;100381.06;5046790;28;20045;-88
2023/08/22 01:50:39;;;;;;;9.57;1.00;;;;;;;16.26;100.00;100376.56;5056795;28;20025;-88
2023/08/22 01:53:06;;;;;;;5.75;1.10;;;;;;;16.22;100.00;100373.44;5018737;28;20032;-87
2023/08/22 01:55:32;;;;;;;7.45;1.27;;;;;;;16.22;100.00;100368.09;5052360;28;20047;-87
2023/08/22 01:57:58;;;;;;;4.40;1.10;;;;;;;16.21;100.00;100375.25;5017472;28;20032;-87
2023/08/22 02:00:24;;;;;;;6.00;1.50;;;;;;;16.17;100.00;100384.66;5030333;28;20026;-87
2023/08/22 02:02:50;;;;;;;5.82;1.30;;;;;;;16.15;100.00;100378.66;5022337;28;20037;-87
2023/08/22 02:05:15;;;;;;;8.98;1.67;;;;;;;16.17;100.00;100381.97;5037173;28;20065;-87
2023/08/22 02:07:42;;;;;;;9.13;1.42;;;;;;;16.19;100.00;100382.63;5040447;28;20098;-86
2023/08/22 02:10:08;;;;;;;5.38;1.08;;;;;;;16.20;100.00;100376.28;5015860;28;20478;-88
2023/08/22 02:12:34;;;;;;;6.75;1.33;;;;;;;16.20;100.00;100386.94;5033242;28;20393;-87
2023/08/22 02:15:00;;;;;;;4.57;1.20;;;;;;;16.19;100.00;100381.81;5031809;28;20511;-87
2023/08/22 02:17:25;;;;;;;9.77;1.52;;;;;;;16.16;100.00;100380.34;5051501;28;20063;-87
2023/08/22 02:19:51;;;;;;;11.18;1.23;;;;;;;16.18;100.00;100390.81;5046139;28;20033;-88
2023/08/22 02:22:17;;;;;;;6.97;1.20;;;;;;;16.15;100.00;100389.31;5029262;28;20119;-86
2023/08/22 02:24:43;;;;;;;6.10;0.90;;;;;;;16.17;100.00;100397.16;5049944;28;20409;-87
2023/08/22 02:27:09;;;;;;;5.70;0.80;;;;;;;16.18;100.00;100399.63;5032669;28;20581;-88
2023/08/22 02:29:35;;;;;;;6.63;1.23;;;;;;;16.21;100.00;100396.59;5036768;28;20069;-88
2023/08/22 02:32:01;;;;;;;5.75;0.93;;;;;;;16.21;100.00;100398.47;5057603;28;20040;-87
2023/08/22 02:34:26;;;;;;;8.63;1.08;;;;;;;16.21;100.00;100398.47;5032314;28;20572;-87
2023/08/22 02:36:52;;;;;;;5.53;0.98;;;;;;;16.22;100.00;100402.75;5010642;28;20033;-86
2023/08/22 02:39:18;;;;;;;7.22;1.10;;;;;;;16.23;100.00;100407.09;5031635;28;20473;-85
2023/08/22 02:41:44;;;;;;;8.52;1.02;;;;;;;16.23;100.00;100402.59;5058333;28;20067;-87
2023/08/22 02:44:09;;;;;;;6.85;1.80;;;;;;;16.23;100.00;100397.25;5036692;28;20040;-87
2023/08/22 02:46:35;;;;;;;10.13;1.45;;;;;;;16.26;100.00;100409.38;5029615;28;20029;-87
2023/08/22 02:49:02;;;;;;;6.38;1.15;;;;;;;16.26;100.00;100405.91;5064349;28;20036;-86
2023/08/22 02:51:28;;;;;;;8.80;1.58;;;;;;;16.26;100.00;100406.72;5045714;28;20128;-87
2023/08/22 02:53:54;;;;;;;9.80;1.13;;;;;;;16.28;100.00;100403.88;5036584;28;20049;-86
2023/08/22 02:56:20;;;;;;;6.35;1.23;;;;;;;16.26;100.00;100401.38;5038406;28;20099;-87
2023/08/22 02:58:46;;;;;;;7.57;1.17;;;;;;;16.25;100.00;100405.06;5020988;28;20032;-86
2023/08/22 03:01:12;;;;;;;5.18;1.00;;;;;;;16.21;100.00;100409.94;5036670;28;20032;-88
2023/08/22 03:03:43;;;;;;;6.20;1.10;;;;;;;16.17;100.00;100413.97;5051521;28;20044;-88
2023/08/22 03:06:09;;;;;;;7.20;1.13;;;;;;;16.10;100.00;100413.06;5060620;28;20122;-86
2023/08/22 03:08:37;;;;;;;5.38;1.05;;;;;;;16.07;100.00;100413.44;5030623;28;20106;-87
2023/08/22 03:11:04;;;;;;;3.92;0.88;;;;;;;16.08;100.00;100415.06;5016791;28;20024;-87
2023/08/22 03:13:30;;;;;;;3.28;1.10;;;;;;;16.03;100.00;100412.97;5044266;28;20068;-87
2023/08/22 03:15:57;;;;;;;6.15;1.02;;;;;;;16.03;100.00;100418.28;5072089;28;20064;-87
2023/08/22 03:18:25;;;;;;;6.57;0.80;;;;;;;16.01;100.00;100420.31;5049864;28;20033;-87
2023/08/22 03:20:56;;;;;;;5.82;0.82;;;;;;;16.03;100.00;100420.97;5033172;28;20040;-86
2023/08/22 03:23:26;;;;;;;4.38;0.50;;;;;;;16.01;100.00;100416.81;5032963;28;20112;-86
2023/08/22 03:25:59;;;;;;;3.20;0.60;;;;;;;16.02;100.00;100421.13;5057556;28;20111;-87
2023/08/22 03:28:26;;;;;;;2.95;0.70;;;;;;;15.99;100.00;100412.47;5061014;28;20469;-87
2023/08/22 03:30:57;;;;;;;6.30;1.20;;;;;;;16.02;100.00;100418.47;5056184;28;20106;-86
2023/08/22 03:33:24;;;;;;;4.47;0.98;;;;;;;15.97;100.00;100419.81;5044058;28;20033;-87
2023/08/22 03:35:52;;;;;;;3.10;0.70;;;;;;;15.95;100.00;100419.16;5058879;28;20055;-87
2023/08/22 03:38:18;;;;;;;1.90;0.52;;;;;;;15.94;100.00;100420.16;5041476;28;20036;-86
2023/08/22 03:40:44;;;;;;;4.18;0.70;;;;;;;15.92;100.00;100418.69;5060027;28;20029;-87
2023/08/22 03:43:10;;;;;;;6.40;0.88;;;;;;;15.93;100.00;100415.84;5047756;28;20392;-88
2023/08/22 03:45:38;;;;;;;3.85;0.70;;;;;;;15.93;100.00;100423.00;5033361;28;20082;-87
2023/08/22 03:48:05;;;;;;;2.63;0.70;;;;;;;15.92;100.00;100421.34;5057513;28;20033;-88
2023/08/22 03:50:32;;;;;;;4.32;0.50;;;;;;;15.93;100.00;100425.66;5028832;28;20094;-86
2023/08/22 03:52:58;;;;;;;4.60;0.60;;;;;;;15.95;100.00;100434.31;5024090;28;20029;-88
2023/08/22 03:55:24;;;;;;;4.13;0.60;;;;;;;15.95;100.00;100429.00;5024864;28;20503;-87
2023/08/22 03:57:50;;;;;;;2.13;0.50;;;;;;;15.94;100.00;100436.16;5021531;28;20060;-87
2023/08/22 04:00:16;;;;;;;3.25;0.70;;;;;;;15.96;100.00;100435.97;5021402;28;20067;-89
2023/08/22 04:02:46;;;;;;;4.60;1.13;;;;;;;15.93;100.00;100444.31;4983258;28;20053;-87
2023/08/22 04:05:11;;;;;;;1.73;0.57;;;;;;;15.95;100.00;100442.31;5024058;28;20067;-87
2023/08/22 04:07:37;;;;;;;2.50;0.70;;;;;;;15.94;100.00;100436.16;5044376;28;20071;-87
2023/08/22 04:10:03;;;;;;;1.95;0.40;;;;;;;15.90;100.00;100434.88;5058075;28;20040;-88
2023/08/22 04:12:30;;;;;;;4.00;0.60;;;;;;;15.90;100.00;100436.69;5056906;28;20047;-86
2023/08/22 04:14:56;;;;;;;3.75;0.55;;;;;;;15.83;100.00;100432.09;5018508;28;20124;-86
2023/08/22 04:17:22;;;;;;;2.63;0.60;;;;;;;15.78;100.00;100437.16;5051387;28;20108;-86
2023/08/22 04:19:49;;;;;;;2.85;0.70;;;;;;;15.74;100.00;100435.81;5024056;28;20064;-87
2023/08/22 04:22:15;;;;;;;2.80;0.85;;;;;;;15.71;100.00;100425.53;5060240;28;20025;-87
2023/08/22 04:24:41;;;;;;;2.15;0.40;;;;;;;15.72;100.00;100433.34;5039414;28;20037;-88
2023/08/22 04:27:07;;;;;;;2.10;0.50;;;;;;;15.71;100.00;100437.03;5044426;28;20059;-87
2023/08/22 04:29:33;;;;;;;1.65;0.40;;;;;;;15.68;100.00;100426.72;5047408;28;20060;-88
2023/08/22 04:32:03;;;;;;;2.08;0.52;;;;;;;15.68;100.00;100436.53;5054397;28;20041;-86
2023/08/22 04:34:29;;;;;;;2.50;0.52;;;;;;;15.66;100.00;100433.22;5034669;28;20111;-86
2023/08/22 04:36:58;;;;;;;1.33;0.43;;;;;;;15.66;100.00;100435.88;5046239;28;20037;-87
2023/08/22 04:39:24;;;;;;;4.63;0.43;;;;;;;15.63;100.00;100437.06;5060361;28;20831;-87
2023/08/22 04:41:59;;;;;;;3.58;0.88;;;;;;;15.61;100.00;100437.25;5052926;28;20029;-88
2023/08/22 04:44:34;;;;;;;2.30;0.40;;;;;;;15.61;100.00;100439.06;5045928;28;20092;-90
2023/08/22 04:47:00;;;;;;;1.65;0.50;;;;;;;15.64;100.00;100438.72;5030838;28;20036;-89
2023/08/22 04:49:26;;;;;;;4.90;0.60;;;;;;;15.65;100.00;100428.91;5054901;28;20037;-87
2023/08/22 04:51:52;;;;;;;5.75;0.73;;;;;;;15.65;100.00;100440.41;5016422;28;20034;-87
2023/08/22 04:54:19;;;;;;;2.70;0.60;;;;;;;15.66;100.00;100439.38;5063403;28;20033;-87
2023/08/22 04:56:45;;;;;;;1.27;0.35;;;;;;;15.67;100.00;100443.69;5060682;28;20107;-88
2023/08/22 04:59:10;;;;;;;4.38;1.25;;;;;;;15.67;100.00;100442.88;5036555;28;20040;-87
2023/08/22 05:01:36;;;;;;;4.47;0.80;;;;;;;15.68;100.00;100445.38;5047188;28;20091;-88
2023/08/22 05:04:02;;;;;;;1.70;0.50;;;;;;;15.68;100.00;100445.38;5037046;28;20492;-88
2023/08/22 05:06:28;;;;;;;2.92;0.52;;;;;;;15.73;100.00;100461.66;5052656;28;20040;-87
2023/08/22 05:08:54;;;;;;;1.55;0.60;;;;;;;15.75;100.00;100459.63;5047282;28;20043;-86
2023/08/22 05:11:20;;;;;;;2.10;0.90;;;;;;;15.79;100.00;100457.44;5020273;28;20764;-87
2023/08/22 05:13:46;;;;;;;2.40;0.57;;;;;;;15.84;100.00;100459.56;5068795;28;20060;-87
2023/08/22 05:16:12;;;;;;;2.90;0.85;;;;;;;15.85;100.00;100451.41;5079536;28;20477;-87
2023/08/22 05:18:38;;;;;;;1.75;0.70;;;;;;;15.86;100.00;100457.56;5074749;28;20032;-87
2023/08/22 05:21:04;;;;;;;2.35;0.55;;;;;;;15.88;100.00;100460.84;5053080;28;20159;-87
2023/08/22 05:23:31;;;;;;;1.75;0.45;;;;;;;15.84;100.00;100454.25;5026474;28;20599;-88
2023/08/22 05:25:57;;;;;;;2.53;0.60;;;;;;;15.83;100.00;100464.06;5031709;28;20207;-87
2023/08/22 05:28:23;;;;;;;3.08;0.50;;;;;;;15.87;100.00;100461.88;5050637;28;20098;-88
2023/08/22 05:30:48;;;;;;;3.33;0.40;;;;;;;15.88;100.00;100461.69;5039482;28;20080;-87
2023/08/22 05:33:14;;;;;;;3.28;0.60;;;;;;;15.90;100.00;100469.50;5040909;28;20033;-87
2023/08/22 05:35:40;;;;;;;4.78;0.75;;;;;;;15.91;100.00;100468.50;5024698;28;20450;-87
2023/08/22 05:38:06;;;;;;;3.03;0.60;;;;;;;15.89;100.00;100470.53;5043141;28;20043;-87
2023/08/22 05:40:32;;;;;;;3.47;0.77;;;;;;;15.85;100.00;100470.06;5034804;28;20033;-87
2023/08/22 05:42:58;;;;;;;2.35;0.50;;;;;;;15.83;100.00;100474.72;5059023;28;20047;-87
2023/08/22 05:45:24;;;;;;;3.42;0.73;;;;;;;15.84;100.00;100464.91;5024879;28;20033;-87
2023/08/22 05:47:50;;;;;;;3.65;0.70;;;;;;;15.81;100.00;100479.41;5057726;28;20043;-88
2023/08/22 05:50:16;;;;;;;1.83;0.52;;;;;;;15.78;100.00;100477.13;5023149;28;20041;-89
2023/08/22 05:52:42;;;;;;;2.58;0.60;;;;;;;15.75;100.00;100486.28;5035152;28;20035;-88
2023/08/22 05:55:08;;;;;;;3.25;0.60;;;;;;;15.78;100.00;100479.78;5049722;28;20537;-87
2023/08/22 05:57:34;;;;;;;2.75;0.80;;;;;;;15.80;100.00;100480.41;5027832;28;20040;-87
2023/08/22 06:00:00;;;;;;;1.83;0.55;;;;;;;15.81;100.00;100487.41;5057304;28;20029;-87
2023/08/22 06:02:26;;;;;;;4.43;0.63;;;;;;;15.82;100.00;100483.75;5056771;28;20048;-87
2023/08/22 06:04:52;;;;;;;4.25;0.70;;;;;;;15.83;100.00;100487.25;5052355;28;20036;-88
2023/08/22 06:07:18;;;;;;;1.67;0.50;;;;;;;15.86;100.00;100487.69;5030523;28;20020;-88
2023/08/22 06:09:44;;;;;;;3.03;0.60;;;;;;;15.87;100.00;100484.03;5073414;28;20405;-88
2023/08/22 06:12:11;;;;;;;5.30;0.70;;;;;;;15.88;100.00;100493.69;5059819;28;20115;-88
2023/08/22 06:14:37;;;;;;;3.13;0.73;;;;;;;15.91;100.00;100505.81;5041004;28;20098;-88
2023/08/22 06:17:03;;;;;;;2.80;0.60;;;;;;;15.92;100.00;100499.50;5002263;28;20060;-87
2023/08/22 06:19:29;;;;;;;3.55;0.55;;;;;;;15.91;100.00;100513.00;5046114;28;20485;-88
2023/08/22 06:21:55;;;;;;;7.20;0.80;;;;;;;15.86;100.00;100509.00;5027109;28;20065;-87
2023/08/22 06:24:21;;;;;;;5.00;0.70;;;;;;;15.83;100.00;100517.38;5055244;28;20033;-86
2023/08/22 06:26:48;;;;;;;1.80;0.47;;;;;;;15.79;100.00;100523.22;5016513;28;20057;-87
2023/08/22 06:29:16;;;;;;;1.77;0.52;;;;;;;15.73;100.00;100517.63;5029936;28;20450;-87
2023/08/22 06:31:42;;;;;;;1.95;0.50;;;;;;;15.71;100.00;100524.94;5017410;28;20073;-87
2023/08/22 06:34:09;;;;;;;2.33;0.60;;;;;;;15.70;100.00;100531.28;5034577;28;20039;-87
2023/08/22 06:36:35;;;;;;;4.47;0.47;;;;;;;15.71;100.00;100538.28;5029368;28;20568;-87
2023/08/22 06:39:00;;;;;;;1.75;0.50;;;;;;;15.72;100.00;100541.75;5025004;28;20036;-87
2023/08/22 06:41:27;;;;;;;3.13;0.60;;;;;;;15.72;100.00;100545.25;5032652;28;20033;-86
2023/08/22 06:43:53;;;;;;;1.95;0.43;;;;;;;15.76;100.00;100537.75;5028539;28;20429;-87
2023/08/22 06:46:21;;;;;;;3.60;0.50;;;;;;;15.80;100.00;100551.56;4993127;28;20041;-87
2023/08/22 06:48:50;;;;;;;3.08;0.80;;;;;;;15.82;100.00;100549.53;4998688;28;20029;-87
2023/08/22 06:51:16;;;;;;;1.70;0.40;;;;;;;15.78;100.00;100554.41;5024274;28;20816;-87
2023/08/22 06:53:42;;;;;;;3.30;0.60;;;;;;;15.78;100.00;100558.88;5022091;28;20026;-87
2023/08/22 06:56:08;;;;;;;4.07;0.73;;;;;;;15.79;100.00;100557.88;5032808;28;20140;-87
2023/08/22 06:58:34;;;;;;;3.38;0.60;;;;;;;15.79;100.00;100564.03;5050839;28;20541;-88
2023/08/22 07:01:00;;;;;;;4.97;0.88;;;;;;;15.79;100.00;100566.72;5031373;28;20440;-87
2023/08/22 07:03:25;;;;;;;3.30;0.80;;;;;;;15.80;100.00;100567.53;4976361;28;20791;-87
2023/08/22 07:05:52;;;;;;;2.05;0.68;;;;;;;15.84;100.00;100561.69;5014414;28;20037;-88
2023/08/22 07:08:19;;;;;;;2.25;0.60;;;;;;;15.87;100.00;100568.50;5032424;28;20045;-87
2023/08/22 07:10:45;;;;;;;2.63;0.60;;;;;;;15.89;100.00;100569.16;5046176;28;20037;-88
2023/08/22 07:13:10;;;;;;;3.75;0.70;;;;;;;15.93;100.00;100562.44;5041474;28;20047;-87
2023/08/22 07:15:36;;;;;;;3.25;0.63;;;;;;;15.95;100.00;100564.94;5005727;28;20102;-87
2023/08/22 07:18:02;;;;;;;1.45;0.60;;;;;;;15.99;100.00;100568.94;5019039;28;20037;-89
2023/08/22 07:20:28;;;;;;;6.20;1.00;;;;;;;15.99;100.00;100571.59;5039545;28;20105;-87
2023/08/22 07:22:54;;;;;;;3.38;0.70;;;;;;;15.97;100.00;100579.78;5003957;28;20033;-87
2023/08/22 07:25:19;;;;;;;1.98;0.60;;;;;;;15.96;100.00;100569.25;5035290;28;20547;-88
2023/08/22 07:27:45;;;;;;;2.63;0.43;;;;;;;15.99;100.00;100575.09;5033145;28;20041;-87
2023/08/22 07:30:12;;;;;;;5.88;0.75;;;;;;;15.97;100.00;100578.94;5063581;28;20560;-88
2023/08/22 07:32:38;;;;;;;1.23;0.45;;;;;;;16.02;100.00;100581.09;5060404;28;20041;-88
2023/08/22 07:35:04;;;;;;;1.23;0.43;;;;;;;16.06;100.00;100575.22;5021925;28;20037;-88
2023/08/22 07:37:29;;;;;;;3.92;0.50;;;;;;;16.08;100.00;100583.06;5031143;28;20033;-87
2023/08/22 07:39:56;;;;;;;2.75;0.50;;;;;;;16.13;100.00;100586.03;5022554;28;20083;-88
2023/08/22 07:42:22;;;;;;;2.88;0.60;;;;;;;16.15;100.00;100583.19;5048853;28;20048;-88
2023/08/22 07:44:48;;;;;;;1.45;0.32;;;;;;;16.19;100.00;100585.31;5021552;28;20037;-88
2023/08/22 07:47:14;;;;;;;3.45;0.60;;;;;;;16.24;100.00;100590.91;5031337;28;20101;-86
2023/08/22 07:49:39;;;;;;;3.85;0.50;;;;;;;16.26;100.00;100587.25;5031296;28;20037;-87
2023/08/22 07:52:05;;;;;;;2.45;0.60;;;;;;;16.29;100.00;100593.06;5032223;28;20084;-87
2023/08/22 07:54:32;;;;;;;1.45;0.30;;;;;;;16.30;100.00;100597.38;5036072;28;20048;-88
2023/08/22 07:57:00;;;;;;;3.42;0.45;;;;;;;16.35;100.00;100602.19;5005421;28;20567;-88
2023/08/22 07:59:26;;;;;;;2.40;0.40;;;;;;;16.35;100.00;100596.84;5034135;28;20040;-88
2023/08/22 08:01:53;;;;;;;3.15;0.52;;;;;;;16.37;100.00;100589.50;5007698;28;20123;-88
2023/08/22 08:04:18;;;;;;;2.28;0.52;;;;;;;16.46;100.00;100596.44;5015076;28;20029;-88
2023/08/22 08:06:46;;;;;;;2.45;0.60;;;;;;;16.54;100.00;100594.69;5028721;28;20025;-88
2023/08/22 08:09:11;;;;;;;3.78;0.88;;;;;;;16.61;100.00;100600.97;4999920;28;20045;-87
2023/08/22 08:11:37;;;;;;;3.33;0.40;;;;;;;16.67;100.00;100600.25;5016855;28;20045;-88
2023/08/22 08:14:03;;;;;;;1.23;0.32;;;;;;;16.69;100.00;100603.56;5020056;28;20116;-87
2023/08/22 08:16:29;;;;;;;2.25;0.50;;;;;;;16.70;100.00;100601.72;5022286;28;20044;-87
2023/08/22 08:18:54;;;;;;;3.53;0.45;;;;;;;16.69;100.00;100610.75;5037124;28;20037;-86
2023/08/22 08:21:21;;;;;;;3.92;0.70;;;;;;;16.71;100.00;100609.53;5023303;28;20026;-87
2023/08/22 08:23:47;;;;;;;8.02;0.75;;;;;;;16.77;100.00;100607.97;5010543;28;20069;-87
2023/08/22 08:26:12;;;;;;;2.58;0.50;;;;;;;16.80;100.00;100609.47;5029188;28;20044;-88
2023/08/22 08:28:38;;;;;;;3.05;0.40;;;;;;;16.91;100.00;100609.03;5015252;28;20041;-88
2023/08/22 08:31:04;;;;;;;7.47;0.77;;;;;;;17.05;100.00;100617.22;5033683;28;20025;-88
2023/08/22 08:33:31;;;;;;;2.05;0.35;;;;;;;17.17;100.00;100613.13;5013858;28;20604;-86
2023/08/22 08:35:57;;;;;;;2.28;0.40;;;;;;;17.09;100.00;100613.19;5026247;28;20042;-88
2023/08/22 08:38:23;;;;;;;1.42;0.50;;;;;;;17.08;100.00;100617.72;5030441;28;20033;-87
2023/08/22 08:40:50;;;;;;;3.20;0.50;;;;;;;17.03;100.00;100628.09;5041741;28;20033;-88
2023/08/22 08:43:21;;;;;;;2.50;0.40;;;;;;;16.96;100.00;100619.16;5025742;28;20094;-87
2023/08/22 08:45:48;;;;;;;2.47;0.50;;;;;;;16.93;100.00;100630.22;5047574;28;20036;-88
2023/08/22 08:48:15;;;;;;;4.10;0.38;;;;;;;16.90;100.00;100633.25;5029872;28;20057;-88
2023/08/22 08:50:42;;;;;;;5.18;0.70;;;;;;;16.90;100.00;100636.72;5045424;28;20036;-87
2023/08/22 08:53:08;;;;;;;2.65;0.55;;;;;;;16.89;100.00;100647.59;5029919;28;20843;-88
2023/08/22 08:55:35;;;;;;;3.95;0.65;;;;;;;16.86;100.00;100651.47;5045353;28;20033;-88
2023/08/22 08:58:01;;;;;;;1.67;0.40;;;;;;;16.74;100.00;100657.22;5046537;28;20112;-88
2023/08/22 09:00:29;;;;;;;1.73;0.43;;;;;;;16.59;100.00;100662.53;5022294;28;20084;-87
2023/08/22 09:02:54;;;;;;;2.33;0.35;;;;;;;16.39;100.00;100666.69;5000132;28;20034;-85
2023/08/22 09:05:21;;;;;;;1.00;0.30;;;;;;;16.26;100.00;100673.41;5054071;28;20060;-86
2023/08/22 09:07:47;;;;;;;3.88;0.45;;;;;;;16.14;100.00;100672.16;5048520;28;20036;-87
2023/08/22 09:10:13;;;;;;;3.95;0.50;;;;;;;16.15;100.00;100685.31;5042546;28;20034;-90
2023/08/22 09:12:39;;;;;;;3.20;0.35;;;;;;;16.12;100.00;100691.84;5027661;28;20033;-88
2023/08/22 09:15:16;;;;;;;2.65;0.43;;;;;;;16.20;100.00;100695.44;5042188;28;20029;-89
2023/08/22 09:17:42;;;;;;;2.20;0.50;;;;;;;16.22;100.00;100691.63;5016816;28;20045;-86
2023/08/22 09:20:10;;;;;;;4.22;0.65;;;;;;;16.25;100.00;100698.44;5041994;28;20040;-87
2023/08/22 09:22:36;;;;;;;2.50;0.40;;;;;;;16.31;100.00;100694.25;5010926;28;20444;-89
2023/08/22 09:25:03;;;;;;;4.93;0.80;;;;;;;16.29;100.00;100685.59;5022874;28;20045;-87
2023/08/22 09:27:29;;;;;;;1.00;0.30;;;;;;;16.27;100.00;100687.59;5036621;28;20393;-87
2023/08/22 09:30:04;;;;;;;3.47;0.40;;;;;;;16.31;100.00;100686.25;5001664;28;20025;-88
2023/08/22 09:32:31;;;;;;;2.33;0.40;;;;;;;16.40;100.00;100682.50;5051738;28;20037;-88
2023/08/22 09:35:01;;;;;;;4.00;0.65;;;;;;;16.54;100.00;100680.06;5036942;28;20084;-87
2023/08/22 09:37:37;;;;;;;1.70;0.40;;;;;;;16.67;100.00;100679.47;4998477;28;20095;-86
2023/08/22 09:40:08;;;;;;;2.38;0.40;;;;;;;16.71;100.00;100681.63;5048653;28;20187;-87
2023/08/22 09:42:38;;;;;;;4.40;0.80;;;;;;;16.83;100.00;100689.19;5038548;28;20041;-87
2023/08/22 09:45:05;;;;;;;2.72;0.55;;;;;;;16.82;100.00;100687.53;5030105;28;20555;-87
2023/08/22 09:47:31;;;;;;;5.40;0.57;;;;;;;16.78;100.00;100694.22;5040964;28;20045;-86
2023/08/22 09:50:04;;;;;;;2.83;0.50;;;;;;;16.74;100.00;100689.25;5047112;28;20108;-87
2023/08/22 09:52:31;;;;;;;3.63;0.68;;;;;;;16.72;100.00;100699.28;5021194;28;20111;-86
2023/08/22 09:54:57;;;;;;;5.60;0.70;;;;;;;16.70;100.00;100697.81;5033236;28;21237;-86
2023/08/22 09:57:27;;;;;;;3.33;0.55;;;;;;;16.69;100.00;100696.16;5032149;28;20497;-86
2023/08/22 09:59:53;;;;;;;1.70;0.30;;;;;;;16.69;100.00;100704.16;5033707;28;20037;-86
2023/08/22 10:02:19;;;;;;;2.17;0.50;;;;;;;16.70;100.00;100705.81;5055202;28;20037;-86
2023/08/22 10:04:46;;;;;;;3.67;0.77;;;;;;;16.74;100.00;100699.94;5017724;28;20547;-86
2023/08/22 10:07:12;;;;;;;5.60;1.23;;;;;;;16.80;100.00;100706.38;5032023;28;20086;-86
2023/08/22 10:09:39;;;;;;;4.28;1.45;;;;;;;16.97;100.00;100700.91;5038981;28;20179;-85
2023/08/22 10:12:09;;;;;;;6.05;0.70;;;;;;;17.14;100.00;100690.94;5033962;28;20021;-86
2023/08/22 10:14:38;;;;;;;5.05;0.70;;;;;;;17.31;100.00;100688.13;5050641;28;20037;-85
2023/08/22 10:17:05;;;;;;;5.60;1.25;;;;;;;17.43;100.00;100694.66;5036634;28;20111;-85
2023/08/22 10:19:31;;;;;;;5.10;0.70;;;;;;;17.60;100.00;100689.13;5010078;28;20038;-86
2023/08/22 10:22:13;;;;;;;6.63;1.23;;;;;;;17.64;100.00;100686.91;5050752;28;20562;-86
2023/08/22 10:24:40;;;;;;;3.03;0.70;;;;;;;17.66;100.00;100682.22;5030140;28;20041;-85
2023/08/22 10:27:12;;;;;;;3.72;0.60;;;;;;;17.83;100.00;100682.84;5034477;28;20056;-85
2023/08/22 10:29:47;;;;;;;5.55;1.23;;;;;;;17.98;100.00;100682.81;5033784;28;20033;-84
2023/08/22 10:32:13;;;;;;;5.53;0.82;;;;;;;17.95;100.00;100684.00;5036651;28;20060;-86
2023/08/22 10:34:38;;;;;;;6.85;1.13;;;;;;;17.95;100.00;100686.69;5033928;28;20124;-85
2023/08/22 10:37:05;;;;;;;5.63;0.90;;;;;;;18.05;100.00;100678.38;5030523;28;20129;-85
2023/08/22 10:39:39;;;;;;;5.53;1.10;;;;;;;18.18;100.00;100677.72;5013705;28;20194;-85
2023/08/22 10:42:06;;;;;;;10.85;1.27;;;;;;;18.19;100.00;100675.84;5041207;28;20108;-85
2023/08/22 10:44:31;;;;;;;4.35;0.80;;;;;;;18.16;100.00;100682.44;5016461;28;20034;-85
2023/08/22 10:47:05;;;;;;;7.78;1.85;;;;;;;18.17;100.00;100689.41;5032942;28;20034;-85
2023/08/22 10:49:32;;;;;;;10.00;1.27;;;;;;;18.08;100.00;100690.53;5028152;28;20036;-83
2023/08/22 10:52:10;;;;;;;4.85;0.93;;;;;;;18.03;100.00;100685.75;5015105;28;20034;-84
2023/08/22 10:54:55;;;;;;;8.10;1.33;;;;;;;18.02;100.00;100692.13;5022949;28;20477;-84
2023/08/22 10:57:21;;;;;;;8.48;1.00;;;;;;;18.04;100.00;100690.09;5014577;28;20519;-85
2023/08/22 11:00:13;;;;;;;8.70;1.13;;;;;;;18.13;100.00;100677.47;5048534;28;20112;-86
2023/08/22 11:02:42;;;;;;;7.80;1.23;;;;;;;18.10;100.00;100684.00;5028843;28;20134;-84
2023/08/22 11:05:10;;;;;;;12.52;1.23;;;;;;;18.15;100.00;100678.09;5005997;28;20056;-84
2023/08/22 11:07:37;;;;;;;8.20;1.35;;;;;;;18.15;100.00;100686.13;5046425;28;20043;-84
2023/08/22 11:10:04;;;;;;;4.72;1.15;;;;;;;18.16;100.00;100685.09;5043344;28;20045;-84
2023/08/22 11:12:30;;;;;;;6.82;2.40;;;;;;;18.20;100.00;100690.91;5045976;28;20129;-84
2023/08/22 11:14:57;;;;;;;7.40;1.45;;;;;;;18.15;100.00;100694.16;5044224;28;20025;-84
2023/08/22 11:17:25;;;;;;;6.55;1.30;;;;;;;18.22;100.00;100697.72;5012735;28;20120;-84